Time;durP1;ratioP1;P1;durP2;ratioP2;P2;SDS_P1;SDS_P2;PMS_P1;PMS_P2;Temp;Humidity;BMP_temperature;BMP_pressure;BME280_temperature;BME280_humidity;BME280_pressure;Samples;Min_cycle;Max_cycle;Signal;HPM_P1;HPM_P2
2021/03/18 00:01:05;;;;;;;20.15;15.52;;;;;;;;;;5053336;28;20557;-78
2021/03/18 00:03:32;;;;;;;21.90;17.40;;;;;;;;;;5052790;28;20234;-77
2021/03/18 00:05:59;;;;;;;20.85;16.30;;;;;;;;;;5052441;28;20199;-76
2021/03/18 00:08:25;;;;;;;19.13;16.20;;;;;;;;;;5052809;28;20181;-77
2021/03/18 00:10:51;;;;;;;18.17;16.15;;;;;;;;;;5051449;28;20239;-78
2021/03/18 00:13:18;;;;;;;19.63;17.27;;;;;;;;;;5060052;28;20579;-78
2021/03/18 00:15:45;;;;;;;22.88;18.90;;;;;;;;;;5053800;28;20545;-79
2021/03/18 00:18:13;;;;;;;20.15;17.02;;;;;;;;;;5052445;28;20184;-79
2021/03/18 00:20:39;;;;;;;19.30;16.42;;;;;;;;;;5052377;28;20236;-79
2021/03/18 00:23:05;;;;;;;21.70;17.63;;;;;;;;;;5051841;28;20180;-77
2021/03/18 00:25:32;;;;;;;20.08;16.35;;;;;;;;;;5053748;28;20204;-77
2021/03/18 00:27:58;;;;;;;19.08;16.05;;;;;;;;;;5056478;28;20252;-79
2021/03/18 00:30:24;;;;;;;21.25;17.42;;;;;;;;;;5062055;28;20551;-77
2021/03/18 00:32:51;;;;;;;20.42;17.73;;;;;;;;;;5059567;28;20188;-76
2021/03/18 00:35:18;;;;;;;21.60;18.08;;;;;;;;;;5051992;28;20290;-79
2021/03/18 00:37:45;;;;;;;22.73;17.63;;;;;;;;;;5049030;28;20224;-78
2021/03/18 00:40:14;;;;;;;22.17;18.02;;;;;;;;;;5055977;28;20215;-76
2021/03/18 00:42:47;;;;;;;22.45;17.13;;;;;;;;;;5039431;28;20193;-79
2021/03/18 00:45:13;;;;;;;22.05;17.70;;;;;;;;;;5054708;28;20200;-78
2021/03/18 00:47:39;;;;;;;21.90;17.70;;;;;;;;;;5069781;28;20529;-78
2021/03/18 00:50:05;;;;;;;19.70;16.90;;;;;;;;;;5055519;28;20185;-79
2021/03/18 00:52:31;;;;;;;22.40;18.00;;;;;;;;;;5046084;28;20523;-78
2021/03/18 00:54:57;;;;;;;22.10;18.05;;;;;;;;;;5062511;28;20208;-80
2021/03/18 00:57:23;;;;;;;21.45;18.30;;;;;;;;;;5056944;28;20769;-77
2021/03/18 00:59:49;;;;;;;20.55;17.35;;;;;;;;;;5063179;28;20296;-77
2021/03/18 01:02:16;;;;;;;22.23;18.00;;;;;;;;;;5067386;28;20192;-78
2021/03/18 01:04:43;;;;;;;23.75;18.88;;;;;;;;;;5075553;28;20603;-79
2021/03/18 01:07:09;;;;;;;20.15;16.95;;;;;;;;;;5069108;28;20538;-78
2021/03/18 01:09:35;;;;;;;22.83;18.63;;;;;;;;;;5061891;28;20657;-78
2021/03/18 01:12:01;;;;;;;23.08;18.35;;;;;;;;;;5051326;28;20205;-80
2021/03/18 01:14:27;;;;;;;24.15;19.17;;;;;;;;;;5048287;28;20193;-77
2021/03/18 01:16:55;;;;;;;21.95;18.48;;;;;;;;;;5067880;28;20237;-79
2021/03/18 01:19:24;;;;;;;23.88;19.45;;;;;;;;;;5055258;28;20177;-78
2021/03/18 01:21:54;;;;;;;24.13;19.83;;;;;;;;;;5047233;28;20177;-76
2021/03/18 01:24:20;;;;;;;24.05;18.92;;;;;;;;;;5068279;28;20193;-79
2021/03/18 01:26:47;;;;;;;24.90;19.85;;;;;;;;;;5054822;28;20595;-77
2021/03/18 01:29:13;;;;;;;25.70;20.10;;;;;;;;;;5047852;28;20177;-80
2021/03/18 01:31:40;;;;;;;24.95;19.13;;;;;;;;;;5054037;28;20176;-80
2021/03/18 01:34:06;;;;;;;27.67;20.60;;;;;;;;;;5041626;28;20197;-80
2021/03/18 01:36:36;;;;;;;27.33;21.73;;;;;;;;;;5054837;28;20230;-79
2021/03/18 01:39:02;;;;;;;27.20;20.35;;;;;;;;;;5074621;28;20177;-79
2021/03/18 01:41:29;;;;;;;32.08;22.45;;;;;;;;;;5060588;28;20196;-79
2021/03/18 01:43:55;;;;;;;28.13;21.65;;;;;;;;;;5054286;28;20257;-79
2021/03/18 01:46:21;;;;;;;25.92;20.05;;;;;;;;;;5054835;28;20565;-79
2021/03/18 01:48:48;;;;;;;26.75;21.02;;;;;;;;;;5054774;28;20173;-79
2021/03/18 01:51:19;;;;;;;26.60;20.58;;;;;;;;;;5055726;28;20550;-80
2021/03/18 01:53:45;;;;;;;29.08;21.52;;;;;;;;;;5054645;28;20590;-79
2021/03/18 01:56:12;;;;;;;26.77;21.60;;;;;;;;;;5050054;28;20197;-79
2021/03/18 01:58:41;;;;;;;26.15;21.15;;;;;;;;;;5061789;28;20641;-79
2021/03/18 02:01:08;;;;;;;30.73;21.50;;;;;;;;;;5056942;28;20212;-79
2021/03/18 02:03:34;;;;;;;29.95;21.80;;;;;;;;;;5044782;28;20234;-79
2021/03/18 02:06:00;;;;;;;31.83;22.77;;;;;;;;;;5056154;28;20220;-78
2021/03/18 02:08:26;;;;;;;34.90;23.90;;;;;;;;;;5064861;28;20173;-76
2021/03/18 02:10:52;;;;;;;41.78;25.10;;;;;;;;;;5054222;28;20188;-80
2021/03/18 02:13:19;;;;;;;35.15;23.73;;;;;;;;;;5038990;28;20713;-79
2021/03/18 02:15:47;;;;;;;42.55;25.70;;;;;;;;;;5041025;28;20178;-78
2021/03/18 02:18:22;;;;;;;39.53;25.33;;;;;;;;;;5054348;28;20177;-79
2021/03/18 02:21:07;;;;;;;36.83;22.55;;;;;;;;;;5071417;28;20195;-79
2021/03/18 02:23:45;;;;;;;38.95;23.92;;;;;;;;;;5060356;28;20173;-80
2021/03/18 02:26:26;;;;;;;41.47;23.58;;;;;;;;;;5034909;28;20702;-79
2021/03/18 02:28:53;;;;;;;41.03;23.15;;;;;;;;;;5055954;28;20184;-81
2021/03/18 02:31:27;;;;;;;42.95;25.33;;;;;;;;;;5074053;28;20176;-80
2021/03/18 02:34:03;;;;;;;45.88;23.35;;;;;;;;;;5048332;28;20232;-78
2021/03/18 02:36:33;;;;;;;44.05;21.80;;;;;;;;;;5046738;28;20172;-80
2021/03/18 02:39:03;;;;;;;33.67;22.00;;;;;;;;;;5053366;28;20188;-81
2021/03/18 02:41:31;;;;;;;44.10;22.90;;;;;;;;;;5053189;28;20572;-80
2021/03/18 02:44:04;;;;;;;64.38;23.15;;;;;;;;;;5036369;28;20577;-78
2021/03/18 02:46:32;;;;;;;55.47;21.88;;;;;;;;;;5049403;28;20488;-79
2021/03/18 02:48:59;;;;;;;28.27;19.27;;;;;;;;;;5041458;28;20645;-77
2021/03/18 02:51:26;;;;;;;36.88;19.77;;;;;;;;;;5052863;28;20200;-80
2021/03/18 02:53:53;;;;;;;69.22;21.90;;;;;;;;;;5051897;28;20328;-78
2021/03/18 02:56:20;;;;;;;55.80;21.30;;;;;;;;;;5051783;28;20216;-79
2021/03/18 02:58:49;;;;;;;70.88;20.63;;;;;;;;;;5052355;28;20184;-80
2021/03/18 03:01:15;;;;;;;39.53;18.70;;;;;;;;;;5051955;28;20205;-78
2021/03/18 03:03:42;;;;;;;36.53;18.83;;;;;;;;;;5045570;28;20189;-78
2021/03/18 03:06:09;;;;;;;30.75;15.27;;;;;;;;;;5062878;28;20184;-79
2021/03/18 03:08:36;;;;;;;36.97;16.33;;;;;;;;;;5049867;28;20181;-80
2021/03/18 03:11:02;;;;;;;37.30;14.77;;;;;;;;;;5052040;28;20169;-79
2021/03/18 03:13:30;;;;;;;31.88;14.00;;;;;;;;;;5063074;28;20593;-77
2021/03/18 03:16:00;;;;;;;25.52;15.88;;;;;;;;;;5039743;28;20182;-79
2021/03/18 03:18:27;;;;;;;30.33;14.40;;;;;;;;;;5059108;28;20252;-79
2021/03/18 03:20:53;;;;;;;24.88;14.68;;;;;;;;;;5056854;28;20199;-79
2021/03/18 03:23:20;;;;;;;25.45;14.85;;;;;;;;;;5061386;28;20596;-80
2021/03/18 03:25:46;;;;;;;30.90;15.07;;;;;;;;;;5040061;28;20558;-79
2021/03/18 03:28:12;;;;;;;23.92;13.40;;;;;;;;;;5046073;28;20177;-80
2021/03/18 03:30:39;;;;;;;39.50;13.45;;;;;;;;;;5065177;28;20623;-78
2021/03/18 03:33:08;;;;;;;26.85;13.95;;;;;;;;;;5054557;28;20242;-78
2021/03/18 03:35:34;;;;;;;34.55;13.30;;;;;;;;;;5072174;28;20668;-77
2021/03/18 03:38:00;;;;;;;37.08;14.10;;;;;;;;;;5051499;28;20182;-77
2021/03/18 03:40:28;;;;;;;23.80;14.13;;;;;;;;;;5071795;28;20192;-78
2021/03/18 03:42:55;;;;;;;36.10;15.13;;;;;;;;;;5048282;28;20181;-78
2021/03/18 03:45:21;;;;;;;29.15;14.00;;;;;;;;;;5043067;28;20234;-78
2021/03/18 03:47:47;;;;;;;26.48;14.75;;;;;;;;;;5053265;28;20226;-78
2021/03/18 03:50:18;;;;;;;22.95;14.65;;;;;;;;;;5068996;28;20192;-79
2021/03/18 03:53:02;;;;;;;23.63;13.88;;;;;;;;;;5066557;28;20180;-80
2021/03/18 03:55:41;;;;;;;27.45;15.80;;;;;;;;;;5069770;28;20211;-79
2021/03/18 03:58:16;;;;;;;23.75;14.05;;;;;;;;;;5051116;28;20192;-77
2021/03/18 04:00:44;;;;;;;25.65;14.05;;;;;;;;;;5045823;28;20193;-80
2021/03/18 04:03:11;;;;;;;43.13;13.82;;;;;;;;;;5071567;28;20179;-78
2021/03/18 04:05:41;;;;;;;31.52;13.98;;;;;;;;;;5062929;28;20284;-80
2021/03/18 04:08:10;;;;;;;46.22;15.73;;;;;;;;;;5050253;28;20181;-79
2021/03/18 04:10:37;;;;;;;49.38;14.73;;;;;;;;;;5055520;28;20181;-78
2021/03/18 04:13:03;;;;;;;39.58;14.10;;;;;;;;;;5054886;28;20187;-79
2021/03/18 04:15:32;;;;;;;51.38;15.10;;;;;;;;;;5043039;28;20224;-77
2021/03/18 04:17:58;;;;;;;33.40;13.63;;;;;;;;;;5044399;28;20515;-79
2021/03/18 04:20:25;;;;;;;40.47;14.23;;;;;;;;;;5045697;28;20197;-79
2021/03/18 04:22:54;;;;;;;41.10;13.93;;;;;;;;;;5043534;28;20177;-78
2021/03/18 04:25:21;;;;;;;47.00;14.32;;;;;;;;;;5055715;28;20196;-80
2021/03/18 04:27:48;;;;;;;40.22;14.85;;;;;;;;;;5055630;28;20203;-78
2021/03/18 04:30:15;;;;;;;57.60;15.07;;;;;;;;;;5052199;28;20188;-80
2021/03/18 04:32:41;;;;;;;45.67;13.57;;;;;;;;;;5056096;28;20165;-78
2021/03/18 04:35:09;;;;;;;37.70;12.55;;;;;;;;;;5056003;28;20200;-79
2021/03/18 04:37:35;;;;;;;47.08;14.38;;;;;;;;;;5059941;28;20530;-79
2021/03/18 04:40:03;;;;;;;25.83;12.60;;;;;;;;;;5055547;28;20262;-80
2021/03/18 04:42:30;;;;;;;25.63;13.55;;;;;;;;;;5056046;28;20252;-79
2021/03/18 04:44:56;;;;;;;26.58;13.85;;;;;;;;;;5046077;28;20209;-78
2021/03/18 04:47:23;;;;;;;31.90;13.00;;;;;;;;;;5055294;28;20173;-79
2021/03/18 04:49:49;;;;;;;32.15;13.27;;;;;;;;;;5039011;28;20184;-80
2021/03/18 04:52:16;;;;;;;29.33;14.25;;;;;;;;;;5055718;28;20577;-79
2021/03/18 04:54:42;;;;;;;31.52;14.63;;;;;;;;;;5057808;28;20204;-78
2021/03/18 04:57:09;;;;;;;33.25;12.95;;;;;;;;;;5065893;28;20673;-78
2021/03/18 04:59:36;;;;;;;27.10;11.45;;;;;;;;;;5055630;28;20572;-78
2021/03/18 05:02:02;;;;;;;29.67;12.23;;;;;;;;;;5064609;28;20246;-79
2021/03/18 05:04:30;;;;;;;32.10;13.27;;;;;;;;;;5059123;28;20291;-77
2021/03/18 05:06:57;;;;;;;41.30;13.57;;;;;;;;;;5054806;28;20590;-81
2021/03/18 05:09:23;;;;;;;45.22;15.18;;;;;;;;;;5054725;28;20178;-81
2021/03/18 05:11:51;;;;;;;55.22;15.32;;;;;;;;;;5055263;28;20165;-80
2021/03/18 05:14:17;;;;;;;34.70;15.05;;;;;;;;;;5062656;28;20187;-78
2021/03/18 05:16:43;;;;;;;42.05;15.27;;;;;;;;;;5055303;28;20256;-80
2021/03/18 05:19:10;;;;;;;42.13;16.50;;;;;;;;;;5053134;28;20582;-81
2021/03/18 05:21:37;;;;;;;36.67;14.60;;;;;;;;;;5050223;28;20623;-79
2021/03/18 05:24:04;;;;;;;55.55;15.68;;;;;;;;;;5041823;28;20258;-81
2021/03/18 05:26:30;;;;;;;40.00;14.95;;;;;;;;;;5048108;28;20177;-80
2021/03/18 05:28:56;;;;;;;42.65;14.95;;;;;;;;;;5048467;28;20231;-81
2021/03/18 05:31:22;;;;;;;25.75;12.95;;;;;;;;;;5052646;28;20549;-78
2021/03/18 05:33:48;;;;;;;55.80;16.30;;;;;;;;;;5052003;28;20208;-80
2021/03/18 05:36:15;;;;;;;45.38;15.45;;;;;;;;;;5049673;28;20209;-80
2021/03/18 05:38:41;;;;;;;51.38;14.27;;;;;;;;;;5071152;28;20215;-81
2021/03/18 05:41:07;;;;;;;33.72;15.13;;;;;;;;;;5061849;28;20193;-77
2021/03/18 05:43:33;;;;;;;42.85;15.73;;;;;;;;;;5054261;28;20181;-79
2021/03/18 05:45:59;;;;;;;34.22;15.10;;;;;;;;;;5043559;28;20186;-78
2021/03/18 05:48:25;;;;;;;45.63;16.13;;;;;;;;;;5055373;28;20181;-79
2021/03/18 05:50:52;;;;;;;31.25;16.45;;;;;;;;;;5055849;28;20193;-77
2021/03/18 05:53:18;;;;;;;41.20;15.43;;;;;;;;;;5059217;28;20565;-79
2021/03/18 05:55:45;;;;;;;41.58;14.85;;;;;;;;;;5063081;28;20184;-79
2021/03/18 05:58:12;;;;;;;47.28;15.15;;;;;;;;;;5053939;28;20331;-81
2021/03/18 06:00:38;;;;;;;35.95;15.30;;;;;;;;;;5048817;28;20193;-79
2021/03/18 06:03:05;;;;;;;36.78;17.15;;;;;;;;;;5071026;28;20270;-76
2021/03/18 06:05:31;;;;;;;55.03;15.93;;;;;;;;;;5057806;28;20216;-79
2021/03/18 06:07:57;;;;;;;55.05;16.13;;;;;;;;;;5054325;28;20180;-79
2021/03/18 06:10:24;;;;;;;51.75;16.00;;;;;;;;;;5039686;28;20564;-80
2021/03/18 06:12:59;;;;;;;39.72;17.00;;;;;;;;;;5056738;28;20180;-80
2021/03/18 06:15:25;;;;;;;42.05;15.32;;;;;;;;;;5060516;28;20207;-80
2021/03/18 06:17:52;;;;;;;33.42;14.70;;;;;;;;;;5056702;28;20264;-78
2021/03/18 06:20:21;;;;;;;47.10;15.48;;;;;;;;;;5047303;28;20527;-80
2021/03/18 06:22:48;;;;;;;28.27;14.23;;;;;;;;;;5047384;28;20523;-79
2021/03/18 06:25:20;;;;;;;37.67;16.52;;;;;;;;;;5067985;28;20203;-80
2021/03/18 06:27:46;;;;;;;38.45;16.77;;;;;;;;;;5052707;28;20187;-81
2021/03/18 06:30:12;;;;;;;49.28;18.10;;;;;;;;;;5048483;28;20199;-79
2021/03/18 06:32:38;;;;;;;34.08;18.52;;;;;;;;;;5052118;28;20189;-78
2021/03/18 06:35:05;;;;;;;43.53;15.60;;;;;;;;;;5044004;28;20229;-78
2021/03/18 06:37:39;;;;;;;32.38;14.32;;;;;;;;;;5073512;28;20312;-80
2021/03/18 06:40:11;;;;;;;46.08;16.25;;;;;;;;;;5052748;28;20705;-80
2021/03/18 06:42:37;;;;;;;26.60;15.55;;;;;;;;;;5066995;28;20210;-78
2021/03/18 06:45:05;;;;;;;30.95;15.25;;;;;;;;;;5050665;28;20210;-79
2021/03/18 06:47:41;;;;;;;37.13;13.95;;;;;;;;;;5053459;28;20227;-78
2021/03/18 06:50:07;;;;;;;33.25;14.85;;;;;;;;;;5049327;28;20184;-81
2021/03/18 06:52:37;;;;;;;38.20;15.77;;;;;;;;;;5053616;28;20184;-80
2021/03/18 06:55:03;;;;;;;36.60;15.35;;;;;;;;;;5058171;28;20300;-79
2021/03/18 06:57:29;;;;;;;36.08;15.10;;;;;;;;;;5073411;28;20180;-80
2021/03/18 06:59:55;;;;;;;32.35;16.38;;;;;;;;;;5053981;28;20290;-79
2021/03/18 07:02:21;;;;;;;33.97;16.60;;;;;;;;;;5055808;28;20577;-79
2021/03/18 07:04:49;;;;;;;31.30;17.35;;;;;;;;;;5052008;28;20576;-78
2021/03/18 07:07:16;;;;;;;28.13;16.77;;;;;;;;;;5054657;28;20204;-82
2021/03/18 07:09:45;;;;;;;32.25;15.88;;;;;;;;;;5053075;28;20208;-78
2021/03/18 07:12:12;;;;;;;27.73;15.90;;;;;;;;;;5052569;28;20204;-81
2021/03/18 07:14:42;;;;;;;27.15;15.55;;;;;;;;;;5046504;28;20551;-82
2021/03/18 07:17:09;;;;;;;30.98;15.80;;;;;;;;;;5060157;28;20175;-79
2021/03/18 07:19:36;;;;;;;29.30;15.95;;;;;;;;;;5052924;28;20205;-78
2021/03/18 07:22:03;;;;;;;26.92;14.98;;;;;;;;;;5055548;28;20538;-82
2021/03/18 07:24:29;;;;;;;24.30;12.70;;;;;;;;;;5052874;28;20196;-78
2021/03/18 07:26:56;;;;;;;25.17;13.50;;;;;;;;;;5051585;28;20234;-79
2021/03/18 07:29:24;;;;;;;28.65;13.75;;;;;;;;;;5053402;28;20169;-82
2021/03/18 07:31:50;;;;;;;32.45;13.98;;;;;;;;;;5051615;28;20654;-79
2021/03/18 07:34:17;;;;;;;27.90;13.60;;;;;;;;;;5052858;28;20288;-81
2021/03/18 07:36:43;;;;;;;24.77;14.35;;;;;;;;;;5051658;28;20199;-78
2021/03/18 07:39:10;;;;;;;26.88;14.02;;;;;;;;;;5051965;28;20180;-79
2021/03/18 07:41:37;;;;;;;37.97;14.70;;;;;;;;;;5048835;28;20555;-81
2021/03/18 07:44:03;;;;;;;30.25;13.25;;;;;;;;;;5049258;28;20196;-82
2021/03/18 07:46:30;;;;;;;31.77;14.70;;;;;;;;;;5053734;28;20669;-78
2021/03/18 07:48:59;;;;;;;30.13;14.38;;;;;;;;;;5054538;28;20177;-80
2021/03/18 07:51:25;;;;;;;30.92;15.82;;;;;;;;;;5047572;28;20216;-79
2021/03/18 07:53:54;;;;;;;27.05;14.10;;;;;;;;;;5050027;28;20205;-79
2021/03/18 07:56:20;;;;;;;26.58;14.52;;;;;;;;;;5055926;28;20185;-79
2021/03/18 07:58:47;;;;;;;39.15;20.85;;;;;;;;;;5052925;28;20184;-80
2021/03/18 08:01:28;;;;;;;29.08;16.00;;;;;;;;;;5052649;28;20240;-80
2021/03/18 08:03:55;;;;;;;31.70;16.27;;;;;;;;;;5052166;28;20677;-80
2021/03/18 08:06:39;;;;;;;35.17;15.57;;;;;;;;;;5051127;28;20680;-79
2021/03/18 08:09:24;;;;;;;38.75;14.25;;;;;;;;;;5052570;28;20308;-79
2021/03/18 08:11:50;;;;;;;33.42;15.25;;;;;;;;;;5049078;28;20216;-79
2021/03/18 08:14:17;;;;;;;27.25;14.55;;;;;;;;;;5057853;28;20225;-80
2021/03/18 08:16:43;;;;;;;27.13;14.18;;;;;;;;;;5052450;28;20181;-80
2021/03/18 08:19:11;;;;;;;35.90;15.73;;;;;;;;;;5052168;28;20573;-80
2021/03/18 08:21:41;;;;;;;28.08;15.23;;;;;;;;;;5050015;28;20212;-82
2021/03/18 08:24:08;;;;;;;32.78;15.98;;;;;;;;;;5045767;28;20200;-80
2021/03/18 08:26:46;;;;;;;25.88;14.45;;;;;;;;;;5061251;28;20534;-78
2021/03/18 08:29:23;;;;;;;28.00;14.02;;;;;;;;;;5045866;28;20169;-79
2021/03/18 08:31:51;;;;;;;33.17;15.77;;;;;;;;;;5051270;28;20549;-79
2021/03/18 08:34:19;;;;;;;28.70;15.05;;;;;;;;;;5051044;28;20192;-79
2021/03/18 08:36:51;;;;;;;26.15;14.23;;;;;;;;;;5054079;28;20283;-78
2021/03/18 08:39:36;;;;;;;24.52;13.40;;;;;;;;;;5046969;28;20189;-78
2021/03/18 08:42:02;;;;;;;20.77;11.95;;;;;;;;;;5055338;28;20192;-77
2021/03/18 08:44:29;;;;;;;22.48;12.80;;;;;;;;;;5054288;28;20200;-79
2021/03/18 08:46:58;;;;;;;23.52;13.55;;;;;;;;;;5051970;28;20674;-79
2021/03/18 08:49:39;;;;;;;24.15;13.35;;;;;;;;;;5051112;28;20189;-79
2021/03/18 08:52:07;;;;;;;23.17;12.00;;;;;;;;;;5044285;28;20177;-80
2021/03/18 08:54:39;;;;;;;27.48;14.48;;;;;;;;;;5049581;28;20197;-81
2021/03/18 08:57:05;;;;;;;25.52;14.88;;;;;;;;;;5050876;28;20181;-80
2021/03/18 08:59:32;;;;;;;21.30;12.20;;;;;;;;;;5051147;28;20208;-79
2021/03/18 09:02:05;;;;;;;19.67;13.55;;;;;;;;;;5051614;28;20180;-80
2021/03/18 09:04:41;;;;;;;19.13;11.95;;;;;;;;;;5050559;28;20231;-77
2021/03/18 09:07:11;;;;;;;17.10;11.40;;;;;;;;;;5050963;28;20203;-79
2021/03/18 09:09:37;;;;;;;17.55;10.35;;;;;;;;;;5051385;28;20260;-79
2021/03/18 09:12:04;;;;;;;16.45;11.38;;;;;;;;;;5050468;28;20189;-79
2021/03/18 09:14:31;;;;;;;13.93;8.68;;;;;;;;;;5051197;28;20270;-79
2021/03/18 09:17:07;;;;;;;11.93;9.70;;;;;;;;;;5060126;28;20194;-80
2021/03/18 09:19:33;;;;;;;13.05;9.70;;;;;;;;;;5038624;28;20530;-79
2021/03/18 09:21:59;;;;;;;12.95;9.88;;;;;;;;;;5049013;28;20192;-78
2021/03/18 09:24:39;;;;;;;16.73;10.65;;;;;;;;;;5050813;28;20209;-79
2021/03/18 09:27:15;;;;;;;16.20;9.77;;;;;;;;;;5048934;28;20185;-78
2021/03/18 09:29:42;;;;;;;12.77;9.85;;;;;;;;;;5043810;28;20212;-79
2021/03/18 09:32:11;;;;;;;13.70;9.20;;;;;;;;;;5050331;28;20180;-79
2021/03/18 09:34:44;;;;;;;16.02;10.02;;;;;;;;;;5050562;28;20193;-78
2021/03/18 09:37:11;;;;;;;12.32;9.35;;;;;;;;;;5050310;28;20285;-78
2021/03/18 09:39:37;;;;;;;15.20;9.27;;;;;;;;;;5050973;28;20177;-78
2021/03/18 09:42:05;;;;;;;11.73;8.90;;;;;;;;;;5050318;28;20198;-78
2021/03/18 09:44:32;;;;;;;11.35;9.32;;;;;;;;;;5058296;28;20204;-78
2021/03/18 09:47:02;;;;;;;13.77;9.27;;;;;;;;;;5057865;28;20176;-79
2021/03/18 09:49:33;;;;;;;15.65;9.07;;;;;;;;;;5050300;28;20201;-80
2021/03/18 09:52:02;;;;;;;11.27;9.25;;;;;;;;;;5050129;28;20228;-81
2021/03/18 09:54:29;;;;;;;15.40;9.13;;;;;;;;;;5050048;28;20233;-81
2021/03/18 09:56:58;;;;;;;13.13;9.77;;;;;;;;;;5050028;28;20236;-79
2021/03/18 09:59:25;;;;;;;15.65;10.27;;;;;;;;;;5050331;28;20537;-80
2021/03/18 10:01:51;;;;;;;12.82;9.93;;;;;;;;;;5049221;28;20288;-80
2021/03/18 10:04:20;;;;;;;12.55;9.15;;;;;;;;;;5049743;28;20717;-79
2021/03/18 10:06:54;;;;;;;10.07;8.70;;;;;;;;;;5050335;28;20998;-80
2021/03/18 10:09:33;;;;;;;9.70;8.50;;;;;;;;;;5050064;28;20704;-79
2021/03/18 10:12:01;;;;;;;9.25;8.15;;;;;;;;;;5049959;28;20226;-80
2021/03/18 10:14:30;;;;;;;12.23;7.78;;;;;;;;;;5054735;28;20695;-78
2021/03/18 10:16:56;;;;;;;11.35;9.82;;;;;;;;;;5063631;28;20649;-77
2021/03/18 10:19:28;;;;;;;12.68;8.80;;;;;;;;;;5057328;28;20207;-80
2021/03/18 10:21:54;;;;;;;12.27;9.50;;;;;;;;;;5069858;28;20212;-79
2021/03/18 10:24:20;;;;;;;12.52;9.77;;;;;;;;;;5060383;28;20200;-79
2021/03/18 10:26:48;;;;;;;12.55;9.63;;;;;;;;;;5069938;28;20237;-78
2021/03/18 10:29:14;;;;;;;11.23;9.80;;;;;;;;;;5051418;28;20208;-78
2021/03/18 10:31:41;;;;;;;13.90;9.70;;;;;;;;;;5051627;28;20214;-78
2021/03/18 10:34:20;;;;;;;13.43;9.70;;;;;;;;;;5067192;28;20564;-79
2021/03/18 10:36:46;;;;;;;14.18;9.52;;;;;;;;;;5049559;28;20188;-79
2021/03/18 10:39:13;;;;;;;12.23;9.15;;;;;;;;;;5049063;28;20268;-78
2021/03/18 10:41:51;;;;;;;10.90;9.07;;;;;;;;;;5049367;28;20301;-78
2021/03/18 10:44:18;;;;;;;11.60;9.05;;;;;;;;;;5046297;28;20200;-79
2021/03/18 10:46:44;;;;;;;11.07;9.13;;;;;;;;;;5032430;28;20173;-79
2021/03/18 10:49:13;;;;;;;11.07;9.38;;;;;;;;;;5035426;28;20262;-80
2021/03/18 10:51:52;;;;;;;9.57;8.25;;;;;;;;;;5051561;28;20189;-77
2021/03/18 10:54:22;;;;;;;10.82;8.88;;;;;;;;;;5048589;28;20208;-78
2021/03/18 10:56:52;;;;;;;10.60;8.75;;;;;;;;;;5049514;28;20180;-80
2021/03/18 10:59:18;;;;;;;11.48;8.85;;;;;;;;;;5043665;28;20189;-79
2021/03/18 11:01:45;;;;;;;11.65;9.30;;;;;;;;;;5063096;28;20319;-78
2021/03/18 11:04:12;;;;;;;11.95;8.07;;;;;;;;;;5054402;28;20234;-79
2021/03/18 11:06:48;;;;;;;8.70;7.90;;;;;;;;;;5049370;28;20189;-80
2021/03/18 11:09:14;;;;;;;9.00;8.13;;;;;;;;;;5048691;28;20177;-79
2021/03/18 11:11:40;;;;;;;10.27;8.38;;;;;;;;;;5045397;28;20184;-79
2021/03/18 11:14:09;;;;;;;9.52;8.52;;;;;;;;;;5063469;28;20220;-78
2021/03/18 11:16:35;;;;;;;9.70;8.80;;;;;;;;;;5048534;28;20933;-79
2021/03/18 11:19:03;;;;;;;9.60;8.52;;;;;;;;;;5048761;28;20184;-77
2021/03/18 11:21:33;;;;;;;8.80;7.50;;;;;;;;;;5048375;28;20204;-78
2021/03/18 11:24:09;;;;;;;8.80;8.00;;;;;;;;;;5048625;28;20296;-78
2021/03/18 11:26:36;;;;;;;7.20;6.50;;;;;;;;;;5047652;28;20192;-78
2021/03/18 11:29:08;;;;;;;7.73;7.13;;;;;;;;;;5040016;28;20913;-79
2021/03/18 11:31:36;;;;;;;6.73;6.23;;;;;;;;;;5048470;28;21145;-78
2021/03/18 11:34:13;;;;;;;6.60;6.10;;;;;;;;;;5048452;28;20431;-79
2021/03/18 11:36:39;;;;;;;7.07;6.40;;;;;;;;;;5048401;28;20426;-78
2021/03/18 11:39:05;;;;;;;6.63;6.03;;;;;;;;;;5048330;28;20416;-78
2021/03/18 11:41:31;;;;;;;6.23;5.73;;;;;;;;;;5048977;28;20498;-77
2021/03/18 11:43:57;;;;;;;5.90;5.40;;;;;;;;;;5048187;28;20443;-77
2021/03/18 11:46:23;;;;;;;6.47;5.87;;;;;;;;;;5049046;28;20561;-77
2021/03/18 11:48:49;;;;;;;6.57;5.97;;;;;;;;;;5045978;28;20515;-78
2021/03/18 11:51:15;;;;;;;6.37;5.77;;;;;;;;;;5048683;28;20470;-77
2021/03/18 11:53:42;;;;;;;6.73;6.17;;;;;;;;;;5048320;28;20471;-78
2021/03/18 11:56:08;;;;;;;6.63;6.03;;;;;;;;;;5046801;28;20429;-78
2021/03/18 11:58:34;;;;;;;6.80;6.20;;;;;;;;;;5048836;28;20420;-76
2021/03/18 12:01:00;;;;;;;6.50;5.90;;;;;;;;;;5048092;28;20632;-78
2021/03/18 12:03:26;;;;;;;6.90;6.20;;;;;;;;;;5048315;28;20486;-78
2021/03/18 12:05:52;;;;;;;7.00;5.00;;;;;;;;;;5048136;28;20447;-79
2021/03/18 12:08:18;;;;;;;7.00;6.40;;;;;;;;;;5048491;28;20419;-77
2021/03/18 12:10:44;;;;;;;6.80;6.10;;;;;;;;;;5048084;28;20483;-78
2021/03/18 12:13:10;;;;;;;7.80;7.20;;;;;;;;;;5048265;28;20484;-78
2021/03/18 12:15:36;;;;;;;7.10;6.45;;;;;;;;;;5058225;28;20447;-79
2021/03/18 12:18:02;;;;;;;7.53;6.85;;;;;;;;;;5068363;28;20181;-78
2021/03/18 12:20:29;;;;;;;6.40;5.90;;;;;;;;;;5068035;28;20242;-80
2021/03/18 12:22:55;;;;;;;6.78;6.07;;;;;;;;;;5051132;28;20177;-79
2021/03/18 12:25:21;;;;;;;6.68;5.97;;;;;;;;;;5043075;28;20205;-76
2021/03/18 12:27:48;;;;;;;7.63;5.72;;;;;;;;;;5066107;28;20192;-78
2021/03/18 12:30:15;;;;;;;6.40;5.18;;;;;;;;;;5052923;28;20216;-78
2021/03/18 12:32:42;;;;;;;6.60;5.95;;;;;;;;;;5054338;28;20574;-79
2021/03/18 12:35:09;;;;;;;7.78;6.65;;;;;;;;;;5054473;28;20711;-77
2021/03/18 12:37:36;;;;;;;8.52;6.38;;;;;;;;;;5059098;28;20187;-76
2021/03/18 12:40:03;;;;;;;6.28;5.70;;;;;;;;;;5056735;28;20287;-80
2021/03/18 12:42:29;;;;;;;9.25;6.30;;;;;;;;;;5048008;28;20200;-77
2021/03/18 12:44:55;;;;;;;8.27;5.85;;;;;;;;;;5064025;28;20200;-78
2021/03/18 12:47:21;;;;;;;8.63;5.50;;;;;;;;;;5048974;28;20186;-80
2021/03/18 12:49:48;;;;;;;8.02;6.05;;;;;;;;;;5048566;28;20213;-79
2021/03/18 12:52:16;;;;;;;6.32;4.75;;;;;;;;;;5050364;28;20212;-76
2021/03/18 12:54:42;;;;;;;7.68;6.30;;;;;;;;;;5042618;28;20205;-78
2021/03/18 12:57:09;;;;;;;5.45;4.95;;;;;;;;;;5059568;28;20551;-78
2021/03/18 12:59:34;;;;;;;10.77;5.70;;;;;;;;;;5047455;28;20185;-75
2021/03/18 13:02:01;;;;;;;5.50;5.00;;;;;;;;;;5054373;28;20216;-77
2021/03/18 13:04:27;;;;;;;6.18;5.63;;;;;;;;;;5049941;28;20212;-78
2021/03/18 13:06:53;;;;;;;4.78;4.28;;;;;;;;;;5051541;28;20234;-79
2021/03/18 13:09:20;;;;;;;7.53;4.60;;;;;;;;;;5048498;28;20534;-78
2021/03/18 13:11:46;;;;;;;4.80;4.30;;;;;;;;;;5048091;28;20242;-79
2021/03/18 13:14:12;;;;;;;8.38;4.80;;;;;;;;;;5053333;28;20228;-79
2021/03/18 13:16:39;;;;;;;5.57;4.40;;;;;;;;;;5052185;28;20242;-79
2021/03/18 13:19:05;;;;;;;6.00;4.78;;;;;;;;;;5048085;28;20215;-79
2021/03/18 13:21:31;;;;;;;6.55;4.50;;;;;;;;;;5051215;28;20204;-78
2021/03/18 13:23:57;;;;;;;5.30;4.80;;;;;;;;;;5066995;28;20945;-78
2021/03/18 13:26:23;;;;;;;4.63;4.22;;;;;;;;;;5049966;28;20196;-78
2021/03/18 13:28:49;;;;;;;4.95;4.53;;;;;;;;;;5050747;28;20192;-80
2021/03/18 13:31:15;;;;;;;4.75;4.28;;;;;;;;;;5042063;28;20549;-81
2021/03/18 13:33:42;;;;;;;5.40;4.90;;;;;;;;;;5048071;28;20217;-80
2021/03/18 13:36:08;;;;;;;4.80;4.30;;;;;;;;;;5049293;28;20272;-77
2021/03/18 13:38:34;;;;;;;5.00;4.50;;;;;;;;;;5051214;28;20185;-78
2021/03/18 13:41:01;;;;;;;5.97;5.47;;;;;;;;;;5052160;28;20208;-80
2021/03/18 13:43:27;;;;;;;6.40;5.25;;;;;;;;;;5049421;28;20169;-77
2021/03/18 13:45:54;;;;;;;5.30;4.50;;;;;;;;;;5051676;28;20171;-80
2021/03/18 13:48:20;;;;;;;5.05;4.55;;;;;;;;;;5054692;28;20276;-79
2021/03/18 13:50:56;;;;;;;7.20;4.68;;;;;;;;;;5062325;28;20216;-79
2021/03/18 13:53:22;;;;;;;6.32;5.15;;;;;;;;;;5048507;28;20189;-80
2021/03/18 13:55:49;;;;;;;4.63;4.20;;;;;;;;;;5047558;28;20189;-79
2021/03/18 13:58:15;;;;;;;6.68;3.95;;;;;;;;;;5051788;28;20597;-78
2021/03/18 14:00:41;;;;;;;5.05;4.63;;;;;;;;;;5054914;28;20203;-79
2021/03/18 14:03:10;;;;;;;4.55;4.03;;;;;;;;;;5068099;28;20204;-79
2021/03/18 14:05:39;;;;;;;3.97;3.60;;;;;;;;;;5050341;28;20212;-77
2021/03/18 14:08:09;;;;;;;4.63;4.15;;;;;;;;;;5049922;28;20664;-78
2021/03/18 14:10:35;;;;;;;6.05;4.10;;;;;;;;;;5053845;28;20192;-78
2021/03/18 14:13:02;;;;;;;6.38;4.82;;;;;;;;;;5069976;28;20184;-79
2021/03/18 14:15:28;;;;;;;5.85;4.05;;;;;;;;;;5048525;28;20205;-79
2021/03/18 14:17:54;;;;;;;4.18;3.70;;;;;;;;;;5049876;28;20188;-78
2021/03/18 14:20:24;;;;;;;3.65;3.25;;;;;;;;;;5051522;28;20224;-77
2021/03/18 14:22:51;;;;;;;7.53;2.70;;;;;;;;;;5057774;28;20199;-78
2021/03/18 14:25:17;;;;;;;2.80;2.50;;;;;;;;;;5049937;28;20611;-77
2021/03/18 14:27:44;;;;;;;4.20;2.92;;;;;;;;;;5057230;28;20178;-77